Urb Country Est, Puerto Rico
Current Conditions -  °F | °C
As of 9:54 AM on Tuesday 21 Oct 2014 (Local Time) from TJSJ Reporting Station
Haze Haze  
Wind Chill: 88°   Ceiling: Unl
Heat Index: 96°   Visibility: 1.5mi
Dew Point: 73°   Wind: 8mph
Humidity: 62%   Direction: 70°ENE
Pressure: 29.98"   Gusts: NA
Location:  18.1892°N, 66.1134°W
Report Text: TJSJ 211354Z 07007KT 1 1/2SM HZ FEW030 SCT065 31/23 A2998 RMK AO2
Loading
Personal Weather Stations






























Interactive Weather Map
Tropical Storm Tracking
New forecast layout! Learn more

10-Day Weather Forecast

Advertisements
Track Severe Weather on mobile